Time,TemperatureF,DewpointF,PressureIn,WindDirection,WindDirectionDegrees,WindSpeedMPH,WindSpeedGustMPH,Humidity,HourlyPrecipIn,Conditions,Clouds,dailyrainin,SolarRadiationWatts/m^2,SoftwareType,DateUTC
2013-09-15 00:05:00,58.5,51.7,30.10,NE,51,0.0,0.0,78,0.00,,,0.00,0,Wunderground v.1.15,2013-09-15 04:05:00,
2013-09-15 00:10:00,58.4,51.9,30.10,NE,51,0.0,0.0,79,0.00,,,0.00,0,Wunderground v.1.15,2013-09-15 04:10:00,
2013-09-15 00:15:00,58.1,51.6,30.10,NE,51,0.0,0.0,79,0.00,,,0.00,0,Wunderground v.1.15,2013-09-15 04:15:00,
2013-09-15 00:19:00,58.0,51.5,30.10,NE,51,0.0,0.0,79,0.00,,,0.00,0,Wunderground v.1.15,2013-09-15 04:19:00,
2013-09-15 00:25:00,57.8,51.7,30.10,NE,51,0.0,0.0,80,0.00,,,0.00,0,Wunderground v.1.15,2013-09-15 04:25:00,
2013-09-15 00:35:00,57.1,51.3,30.11,NE,51,0.0,0.0,81,0.00,,,0.00,0,Wunderground v.1.15,2013-09-15 04:35:00,
2013-09-15 00:45:00,56.5,51.4,30.11,NE,51,0.0,0.0,83,0.00,,,0.00,0,Wunderground v.1.15,2013-09-15 04:45:00,
2013-09-15 00:49:00,56.1,51.3,30.11,NE,51,0.0,0.0,84,0.00,,,0.00,0,Wunderground v.1.15,2013-09-15 04:49:00,
2013-09-15 00:55:00,55.9,51.1,30.11,NE,51,0.0,0.0,84,0.00,,,0.00,0,Wunderground v.1.15,2013-09-15 04:55:00,
2013-09-15 01:05:00,55.3,50.9,30.11,NE,51,0.0,0.0,85,0.00,,,0.00,0,Wunderground v.1.15,2013-09-15 05:05:00,
2013-09-15 01:10:00,55.0,50.6,30.11,NE,51,0.0,0.0,85,0.00,,,0.00,0,Wunderground v.1.15,2013-09-15 05:10:00,
2013-09-15 01:20:00,54.6,50.5,30.11,NE,51,0.0,0.0,86,0.00,,,0.00,0,Wunderground v.1.15,2013-09-15 05:20:00,
2013-09-15 01:25:00,54.4,50.0,30.11,NE,51,0.0,0.0,85,0.00,,,0.00,0,Wunderground v.1.15,2013-09-15 05:25:00,
2013-09-15 01:35:00,54.1,49.7,30.11,NE,51,0.0,0.0,85,0.00,,,0.00,0,Wunderground v.1.15,2013-09-15 05:35:00,
2013-09-15 01:45:00,53.6,49.5,30.12,NE,51,0.0,0.0,86,0.00,,,0.00,0,Wunderground v.1.15,2013-09-15 05:45:00,
2013-09-15 01:50:00,53.3,49.2,30.12,NE,51,0.0,0.0,86,0.00,,,0.00,0,Wunderground v.1.15,2013-09-15 05:50:00,
2013-09-15 02:00:00,52.9,49.1,30.12,NE,51,0.0,0.0,87,0.00,,,0.00,0,Wunderground v.1.15,2013-09-15 06:00:00,
2013-09-15 02:10:00,52.5,49.0,30.12,NE,51,0.0,0.0,88,0.00,,,0.00,0,Wunderground v.1.15,2013-09-15 06:10:00,
2013-09-15 02:20:00,52.2,48.8,30.12,NE,51,0.0,0.0,88,0.00,,,0.00,0,Wunderground v.1.15,2013-09-15 06:20:00,
2013-09-15 02:25:00,52.1,48.7,30.12,NE,51,0.0,0.0,88,0.00,,,0.00,0,Wunderground v.1.15,2013-09-15 06:25:00,
2013-09-15 02:30:00,51.9,48.8,30.12,NE,51,0.0,0.0,89,0.00,,,0.00,0,Wunderground v.1.15,2013-09-15 06:30:00,
2013-09-15 02:40:00,51.8,48.7,30.12,NE,51,0.0,0.0,89,0.00,,,0.00,0,Wunderground v.1.15,2013-09-15 06:40:00,
2013-09-15 02:50:00,51.5,48.4,30.11,NE,51,0.0,0.0,89,0.00,,,0.00,0,Wunderground v.1.15,2013-09-15 06:50:00,
2013-09-15 02:55:00,51.4,48.3,30.11,NE,51,0.0,0.0,89,0.00,,,0.00,0,Wunderground v.1.15,2013-09-15 06:55:00,
2013-09-15 03:05:00,51.1,48.3,30.12,NE,51,0.0,0.0,90,0.00,,,0.00,0,Wunderground v.1.15,2013-09-15 07:05:00,
2013-09-15 03:15:00,50.8,48.0,30.12,NE,51,0.0,0.0,90,0.00,,,0.00,0,Wunderground v.1.15,2013-09-15 07:15:00,
2013-09-15 03:25:00,50.5,47.7,30.12,NE,51,0.0,0.0,90,0.00,,,0.00,0,Wunderground v.1.15,2013-09-15 07:25:00,
2013-09-15 03:35:00,50.3,47.5,30.12,NE,51,0.0,0.0,90,0.00,,,0.00,0,Wunderground v.1.15,2013-09-15 07:35:00,
2013-09-15 03:45:00,50.2,47.4,30.12,NE,51,0.0,0.0,90,0.00,,,0.00,0,Wunderground v.1.15,2013-09-15 07:45:00,
2013-09-15 03:50:00,50.1,47.6,30.12,NE,51,0.0,0.0,91,0.00,,,0.00,0,Wunderground v.1.15,2013-09-15 07:50:00,
2013-09-15 03:55:00,50.0,47.5,30.12,NE,51,0.0,0.0,91,0.00,,,0.00,0,Wunderground v.1.15,2013-09-15 07:55:00,
2013-09-15 04:05:00,49.9,47.4,30.13,NE,51,0.0,0.0,91,0.00,,,0.00,0,Wunderground v.1.15,2013-09-15 08:05:00,
2013-09-15 04:10:00,49.9,47.4,30.12,NE,51,0.0,0.0,91,0.00,,,0.00,0,Wunderground v.1.15,2013-09-15 08:10:00,
2013-09-15 04:20:00,49.7,47.2,30.13,NE,51,0.0,0.0,91,0.00,,,0.00,0,Wunderground v.1.15,2013-09-15 08:20:00,
2013-09-15 04:30:00,49.6,47.1,30.13,NE,51,0.0,0.0,91,0.00,,,0.00,0,Wunderground v.1.15,2013-09-15 08:30:00,
2013-09-15 04:40:00,49.6,47.4,30.13,NE,51,0.0,0.0,92,0.00,,,0.00,0,Wunderground v.1.15,2013-09-15 08:40:00,
2013-09-15 04:50:00,49.7,47.5,30.13,NE,51,0.0,0.0,92,0.00,,,0.00,0,Wunderground v.1.15,2013-09-15 08:50:00,
2013-09-15 04:55:00,49.7,47.5,30.13,NE,51,0.0,0.0,92,0.00,,,0.00,0,Wunderground v.1.15,2013-09-15 08:55:00,
2013-09-15 05:05:00,49.7,47.5,30.13,NE,51,0.0,0.0,92,0.00,,,0.00,0,Wunderground v.1.15,2013-09-15 09:05:00,
2013-09-15 05:10:00,49.7,47.5,30.14,NE,51,0.0,0.0,92,0.00,,,0.00,0,Wunderground v.1.15,2013-09-15 09:10:00,
2013-09-15 05:20:00,49.6,47.4,30.14,NE,51,0.0,0.0,92,0.00,,,0.00,0,Wunderground v.1.15,2013-09-15 09:20:00,
2013-09-15 05:30:00,49.6,47.4,30.14,NE,51,0.0,0.0,92,0.00,,,0.00,0,Wunderground v.1.15,2013-09-15 09:30:00,
2013-09-15 05:40:00,49.6,47.4,30.14,NE,51,0.0,0.0,92,0.00,,,0.00,0,Wunderground v.1.15,2013-09-15 09:40:00,
2013-09-15 05:45:00,49.5,47.3,30.14,NE,51,0.0,0.0,92,0.00,,,0.00,0,Wunderground v.1.15,2013-09-15 09:45:00,
2013-09-15 05:55:00,49.4,47.2,30.15,NE,51,0.0,0.0,92,0.00,,,0.00,0,Wunderground v.1.15,2013-09-15 09:55:00,
2013-09-15 06:00:00,49.3,47.1,30.15,NE,51,0.0,0.0,92,0.00,,,0.00,0,Wunderground v.1.15,2013-09-15 10:00:00,
2013-09-15 06:10:00,49.2,47.0,30.16,NE,51,0.0,0.0,92,0.00,,,0.00,0,Wunderground v.1.15,2013-09-15 10:10:00,
2013-09-15 06:20:00,49.1,46.9,30.16,NE,51,0.0,0.0,92,0.00,,,0.00,0,Wunderground v.1.15,2013-09-15 10:20:00,
2013-09-15 06:25:00,49.1,46.9,30.16,NE,51,0.0,0.0,92,0.00,,,0.00,0,Wunderground v.1.15,2013-09-15 10:25:00,
2013-09-15 06:35:00,49.0,46.8,30.17,NE,51,0.0,0.0,92,0.00,,,0.00,0,Wunderground v.1.15,2013-09-15 10:35:00,
2013-09-15 06:45:00,49.0,46.8,30.17,NE,51,0.0,0.0,92,0.00,,,0.00,7,Wunderground v.1.15,2013-09-15 10:45:00,
2013-09-15 06:50:00,48.9,46.7,30.17,NE,51,0.0,0.0,92,0.00,,,0.00,9,Wunderground v.1.15,2013-09-15 10:50:00,
2013-09-15 07:00:00,48.9,46.7,30.17,NE,51,0.0,0.0,92,0.00,,,0.00,14,Wunderground v.1.15,2013-09-15 11:00:00,
2013-09-15 07:05:00,48.9,46.7,30.17,NE,51,0.0,0.0,92,0.00,,,0.00,18,Wunderground v.1.15,2013-09-15 11:05:00,
2013-09-15 07:10:00,49.0,46.8,30.17,NE,51,0.0,0.0,92,0.00,,,0.00,35,Wunderground v.1.15,2013-09-15 11:10:00,
2013-09-15 07:20:00,49.3,47.4,30.17,NE,51,0.0,0.0,93,0.00,,,0.00,23,Wunderground v.1.15,2013-09-15 11:20:00,
2013-09-15 07:30:00,49.7,47.8,30.18,NE,51,0.0,0.0,93,0.00,,,0.00,46,Wunderground v.1.15,2013-09-15 11:30:00,
2013-09-15 07:40:00,50.3,48.4,30.18,NE,51,0.0,0.0,93,0.00,,,0.00,28,Wunderground v.1.15,2013-09-15 11:40:00,
2013-09-15 07:45:00,50.6,48.7,30.18,NE,51,0.0,0.0,93,0.00,,,0.00,30,Wunderground v.1.15,2013-09-15 11:45:00,
2013-09-15 07:50:00,50.8,48.8,30.17,NE,51,0.0,0.0,93,0.00,,,0.00,30,Wunderground v.1.15,2013-09-15 11:50:00,
2013-09-15 08:00:00,51.4,49.4,30.18,NE,50,0.0,0.0,93,0.00,,,0.00,35,Wunderground v.1.15,2013-09-15 12:00:00,
2013-09-15 08:05:00,51.7,49.7,30.18,West,265,0.0,0.0,93,0.00,,,0.00,35,Wunderground v.1.15,2013-09-15 12:05:00,
2013-09-15 08:15:00,52.4,50.4,30.18,West,265,0.0,0.0,93,0.00,,,0.00,39,Wunderground v.1.15,2013-09-15 12:15:00,
2013-09-15 08:20:00,52.8,50.8,30.18,West,264,0.0,0.0,93,0.00,,,0.00,37,Wunderground v.1.15,2013-09-15 12:20:00,
2013-09-15 08:30:00,53.7,51.4,30.18,WNW,302,0.0,0.0,92,0.00,,,0.00,40,Wunderground v.1.15,2013-09-15 12:30:00,
2013-09-15 08:35:00,54.2,51.9,30.19,WNW,302,0.0,0.0,92,0.00,,,0.00,111,Wunderground v.1.15,2013-09-15 12:35:00,
2013-09-15 08:45:00,55.3,52.1,30.19,West,268,1.0,1.0,89,0.00,,,0.00,46,Wunderground v.1.15,2013-09-15 12:45:00,
2013-09-15 08:55:00,56.4,52.6,30.19,West,265,0.0,1.0,87,0.00,,,0.00,51,Wunderground v.1.15,2013-09-15 12:55:00,
2013-09-15 09:05:00,57.4,52.9,30.19,WNW,293,0.0,1.0,85,0.00,,,0.00,58,Wunderground v.1.15,2013-09-15 13:05:00,
2013-09-15 09:15:00,58.5,52.7,30.19,NW,316,0.0,1.0,81,0.00,,,0.00,49,Wunderground v.1.15,2013-09-15 13:15:00,
2013-09-15 09:20:00,58.9,52.7,30.19,West,263,1.0,1.0,80,0.00,,,0.00,56,Wunderground v.1.15,2013-09-15 13:20:00,
2013-09-15 09:30:00,59.5,53.0,30.19,West,261,0.0,1.0,79,0.00,,,0.00,58,Wunderground v.1.15,2013-09-15 13:30:00,
2013-09-15 09:40:00,60.0,52.1,30.20,WSW,244,1.0,1.0,75,0.00,,,0.00,69,Wunderground v.1.15,2013-09-15 13:40:00,
2013-09-15 09:50:00,60.5,51.4,30.20,West,281,1.0,1.0,72,0.00,,,0.00,77,Wunderground v.1.15,2013-09-15 13:50:00,
2013-09-15 10:00:00,61.1,52.0,30.20,West,269,1.0,1.0,72,0.00,,,0.00,533,Wunderground v.1.15,2013-09-15 14:00:00,
2013-09-15 10:05:00,61.4,51.1,30.20,WNW,303,2.0,2.0,69,0.00,,,0.00,587,Wunderground v.1.15,2013-09-15 14:05:00,
2013-09-15 10:10:00,61.7,51.4,30.20,West,278,2.0,2.0,69,0.00,,,0.00,156,Wunderground v.1.15,2013-09-15 14:10:00,
2013-09-15 10:20:00,62.2,50.7,30.20,West,265,1.0,4.0,66,0.00,,,0.00,76,Wunderground v.1.15,2013-09-15 14:20:00,
2013-09-15 10:30:00,62.5,51.0,30.19,West,259,1.0,2.0,66,0.00,,,0.00,65,Wunderground v.1.15,2013-09-15 14:30:00,
2013-09-15 10:40:00,63.2,51.2,30.20,WNW,283,2.0,2.0,65,0.00,,,0.00,65,Wunderground v.1.15,2013-09-15 14:40:00,
2013-09-15 10:50:00,63.8,52.2,30.20,NNE,17,2.0,2.0,66,0.00,,,0.00,67,Wunderground v.1.15,2013-09-15 14:50:00,
2013-09-15 11:00:00,64.3,51.9,30.19,ENE,74,1.0,1.0,64,0.00,,,0.00,120,Wunderground v.1.15,2013-09-15 15:00:00,
2013-09-15 11:05:00,64.5,52.5,30.19,WNW,298,1.0,1.0,65,0.00,,,0.00,241,Wunderground v.1.15,2013-09-15 15:05:00,
2013-09-15 11:10:00,65.1,51.8,30.19,NE,55,1.0,2.0,62,0.00,,,0.00,195,Wunderground v.1.15,2013-09-15 15:10:00,
2013-09-15 11:15:00,65.3,51.5,30.20,NNW,342,1.0,2.0,61,0.00,,,0.00,274,Wunderground v.1.15,2013-09-15 15:15:00,
2013-09-15 11:25:00,65.8,51.1,30.20,ENE,70,1.0,3.0,59,0.00,,,0.00,209,Wunderground v.1.15,2013-09-15 15:25:00,
2013-09-15 11:35:00,66.3,51.5,30.20,West,275,1.0,2.0,59,0.00,,,0.00,793,Wunderground v.1.15,2013-09-15 15:35:00,
2013-09-15 11:45:00,66.8,52.0,30.20,West,265,1.0,3.0,59,0.00,,,0.00,773,Wunderground v.1.15,2013-09-15 15:45:00,
2013-09-15 11:55:00,67.3,51.1,30.20,NW,305,1.0,2.0,56,0.00,,,0.00,796,Wunderground v.1.15,2013-09-15 15:55:00,
2013-09-15 12:00:00,67.3,51.1,30.20,WNW,292,1.0,1.0,56,0.00,,,0.00,784,Wunderground v.1.15,2013-09-15 16:00:00,
2013-09-15 12:05:00,67.5,50.8,30.20,NW,317,1.0,1.0,55,0.00,,,0.00,744,Wunderground v.1.15,2013-09-15 16:05:00,
2013-09-15 12:10:00,67.7,51.4,30.20,WNW,302,1.0,1.0,56,0.00,,,0.00,770,Wunderground v.1.15,2013-09-15 16:10:00,
2013-09-15 12:20:00,68.4,51.6,30.19,South,180,2.0,2.0,55,0.00,,,0.00,745,Wunderground v.1.15,2013-09-15 16:20:00,
2013-09-15 12:25:00,68.4,51.1,30.19,West,276,2.0,2.0,54,0.00,,,0.00,735,Wunderground v.1.15,2013-09-15 16:25:00,
2013-09-15 12:35:00,67.0,50.8,30.19,East,96,2.0,2.0,56,0.00,,,0.00,624,Wunderground v.1.15,2013-09-15 16:35:00,
2013-09-15 12:45:00,67.8,52.9,30.19,NW,306,1.0,2.0,59,0.00,,,0.00,830,Wunderground v.1.15,2013-09-15 16:45:00,
2013-09-15 12:55:00,68.6,52.3,30.18,WNW,286,1.0,2.0,56,0.00,,,0.00,756,Wunderground v.1.15,2013-09-15 16:55:00,
2013-09-15 13:05:00,69.1,54.6,30.18,SSW,205,1.0,1.0,60,0.00,,,0.00,868,Wunderground v.1.15,2013-09-15 17:05:00,
2013-09-15 13:10:00,69.3,53.9,30.18,South,174,1.0,1.0,58,0.00,,,0.00,661,Wunderground v.1.15,2013-09-15 17:10:00,
2013-09-15 13:20:00,69.3,54.4,30.18,WSW,249,1.0,1.0,59,0.00,,,0.00,698,Wunderground v.1.15,2013-09-15 17:20:00,
2013-09-15 13:25:00,69.3,53.4,30.18,South,182,1.0,1.0,57,0.00,,,0.00,584,Wunderground v.1.15,2013-09-15 17:25:00,
2013-09-15 13:35:00,69.2,53.3,30.17,SSE,167,1.0,1.0,57,0.00,,,0.00,770,Wunderground v.1.15,2013-09-15 17:35:00,
2013-09-15 13:45:00,69.2,53.8,30.17,SSE,149,1.0,1.0,58,0.00,,,0.00,668,Wunderground v.1.15,2013-09-15 17:45:00,
2013-09-15 13:50:00,69.3,54.4,30.17,SW,215,1.0,1.0,59,0.00,,,0.00,457,Wunderground v.1.15,2013-09-15 17:50:00,
2013-09-15 13:55:00,69.0,53.6,30.17,SW,227,1.0,2.0,58,0.00,,,0.00,519,Wunderground v.1.15,2013-09-15 17:55:00,
2013-09-15 14:05:00,68.4,53.5,30.16,SW,230,1.0,2.0,59,0.00,,,0.00,476,Wunderground v.1.15,2013-09-15 18:05:00,
2013-09-15 14:15:00,68.5,54.1,30.16,SSW,205,2.0,6.0,60,0.00,,,0.00,728,Wunderground v.1.15,2013-09-15 18:15:00,
2013-09-15 14:20:00,68.7,54.7,30.15,WNW,300,2.0,2.0,61,0.00,,,0.00,696,Wunderground v.1.15,2013-09-15 18:20:00,
2013-09-15 14:30:00,68.9,54.9,30.15,WSW,239,1.0,1.0,61,0.00,,,0.00,780,Wunderground v.1.15,2013-09-15 18:30:00,
2013-09-15 14:35:00,69.3,54.8,30.15,SSW,206,1.0,1.0,60,0.00,,,0.00,779,Wunderground v.1.15,2013-09-15 18:35:00,
2013-09-15 14:45:00,69.8,55.7,30.15,SW,234,2.0,2.0,61,0.00,,,0.00,622,Wunderground v.1.15,2013-09-15 18:45:00,
2013-09-15 14:50:00,70.0,55.5,30.15,WSW,243,1.0,1.0,60,0.00,,,0.00,656,Wunderground v.1.15,2013-09-15 18:50:00,
2013-09-15 15:00:00,70.1,55.1,30.15,SSE,167,1.0,2.0,59,0.00,,,0.00,784,Wunderground v.1.15,2013-09-15 19:00:00,
2013-09-15 15:10:00,69.7,54.3,30.15,SSE,160,1.0,5.0,58,0.00,,,0.00,290,Wunderground v.1.15,2013-09-15 19:10:00,
2013-09-15 15:20:00,69.8,56.2,30.14,SSW,207,1.0,1.0,62,0.00,,,0.00,650,Wunderground v.1.15,2013-09-15 19:20:00,
2013-09-15 15:30:00,69.8,55.3,30.14,South,178,1.0,1.0,60,0.00,,,0.00,677,Wunderground v.1.15,2013-09-15 19:30:00,
2013-09-15 15:35:00,69.9,54.4,30.14,SSW,210,1.0,1.0,58,0.00,,,0.00,156,Wunderground v.1.15,2013-09-15 19:35:00,
2013-09-15 15:40:00,69.9,55.8,30.14,SSW,211,1.0,1.0,61,0.00,,,0.00,647,Wunderground v.1.15,2013-09-15 19:40:00,
2013-09-15 15:50:00,69.4,54.9,30.14,South,186,2.0,2.0,60,0.00,,,0.00,107,Wunderground v.1.15,2013-09-15 19:50:00,
2013-09-15 16:00:00,68.5,55.0,30.14,SW,215,1.0,1.0,62,0.00,,,0.00,185,Wunderground v.1.15,2013-09-15 20:00:00,
2013-09-15 16:10:00,67.7,53.8,30.13,South,187,1.0,1.0,61,0.00,,,0.00,125,Wunderground v.1.15,2013-09-15 20:10:00,
2013-09-15 16:15:00,67.4,54.4,30.13,WNW,287,1.0,2.0,63,0.00,,,0.00,98,Wunderground v.1.15,2013-09-15 20:15:00,
2013-09-15 16:20:00,66.9,54.3,30.13,SW,217,1.0,1.0,64,0.00,,,0.00,97,Wunderground v.1.15,2013-09-15 20:20:00,
2013-09-15 16:30:00,66.1,53.6,30.12,SSW,199,1.0,1.0,64,0.00,,,0.00,120,Wunderground v.1.15,2013-09-15 20:30:00,
2013-09-15 16:40:00,65.6,53.9,30.12,SSW,193,0.0,2.0,66,0.00,,,0.00,93,Wunderground v.1.15,2013-09-15 20:40:00,
2013-09-15 16:50:00,65.2,53.1,30.12,West,265,1.0,2.0,65,0.00,,,0.00,141,Wunderground v.1.15,2013-09-15 20:50:00,
2013-09-15 17:00:00,65.1,53.0,30.12,West,278,1.0,1.0,65,0.00,,,0.00,142,Wunderground v.1.15,2013-09-15 21:00:00,
2013-09-15 17:05:00,65.2,52.7,30.12,WSW,240,1.0,1.0,64,0.00,,,0.00,144,Wunderground v.1.15,2013-09-15 21:05:00,
2013-09-15 17:15:00,65.4,53.3,30.12,SW,230,1.0,1.0,65,0.00,,,0.00,58,Wunderground v.1.15,2013-09-15 21:15:00,
2013-09-15 17:20:00,65.4,52.9,30.12,West,277,1.0,1.0,64,0.00,,,0.00,84,Wunderground v.1.15,2013-09-15 21:20:00,
2013-09-15 17:25:00,65.3,52.8,30.12,West,271,1.0,1.0,64,0.00,,,0.00,97,Wunderground v.1.15,2013-09-15 21:25:00,
2013-09-15 17:35:00,65.4,52.5,30.12,WSW,255,1.0,1.0,63,0.00,,,0.00,88,Wunderground v.1.15,2013-09-15 21:35:00,
2013-09-15 17:45:00,65.6,52.7,30.11,WNW,287,1.0,1.0,63,0.00,,,0.00,97,Wunderground v.1.15,2013-09-15 21:45:00,
2013-09-15 17:55:00,65.5,53.0,30.11,West,274,1.0,2.0,64,0.00,,,0.00,40,Wunderground v.1.15,2013-09-15 21:55:00,
2013-09-15 18:00:00,65.4,52.5,30.12,West,265,1.0,1.0,63,0.00,,,0.00,49,Wunderground v.1.15,2013-09-15 22:00:00,
2013-09-15 18:05:00,65.4,52.9,30.12,WSW,245,0.0,1.0,64,0.00,,,0.00,65,Wunderground v.1.15,2013-09-15 22:05:00,
2013-09-15 18:15:00,65.2,52.7,30.12,WSW,248,0.0,0.0,64,0.00,,,0.00,26,Wunderground v.1.15,2013-09-15 22:15:00,
2013-09-15 18:25:00,64.9,52.4,30.11,WSW,245,0.0,0.0,64,0.00,,,0.00,23,Wunderground v.1.15,2013-09-15 22:25:00,
2013-09-15 18:30:00,64.7,52.7,30.11,WSW,245,0.0,0.0,65,0.00,,,0.00,19,Wunderground v.1.15,2013-09-15 22:30:00,
2013-09-15 18:35:00,64.5,52.9,30.11,WSW,245,0.0,0.0,66,0.00,,,0.00,14,Wunderground v.1.15,2013-09-15 22:35:00,
2013-09-15 18:40:00,64.4,53.2,30.11,WSW,245,0.0,0.0,67,0.00,,,0.00,11,Wunderground v.1.15,2013-09-15 22:40:00,
2013-09-15 18:50:00,64.0,53.2,30.11,South,175,0.0,0.0,68,0.00,,,0.00,5,Wunderground v.1.15,2013-09-15 22:50:00,
2013-09-15 18:55:00,63.8,53.4,30.11,South,175,0.0,0.0,69,0.00,,,0.00,0,Wunderground v.1.15,2013-09-15 22:55:00,
2013-09-15 19:05:00,63.5,53.9,30.11,South,175,0.0,0.0,71,0.00,,,0.00,0,Wunderground v.1.15,2013-09-15 23:05:00,
2013-09-15 19:15:00,62.6,54.2,30.11,South,175,0.0,0.0,74,0.00,,,0.00,0,Wunderground v.1.15,2013-09-15 23:15:00,
2013-09-15 19:25:00,61.7,53.7,30.11,South,175,0.0,0.0,75,0.00,,,0.00,0,Wunderground v.1.15,2013-09-15 23:25:00,
2013-09-15 19:35:00,60.5,54.0,30.11,South,175,0.0,0.0,79,0.00,,,0.00,0,Wunderground v.1.15,2013-09-15 23:35:00,
2013-09-15 19:40:00,60.2,53.7,30.11,South,173,0.0,0.0,79,0.00,,,0.00,0,Wunderground v.1.15,2013-09-15 23:40:00,
2013-09-15 19:45:00,60.1,53.9,30.11,South,173,0.0,0.0,80,0.00,,,0.00,0,Wunderground v.1.15,2013-09-15 23:45:00,
2013-09-15 19:55:00,59.9,54.1,30.10,South,173,0.0,0.0,81,0.00,,,0.00,0,Wunderground v.1.15,2013-09-15 23:55:00,
2013-09-15 20:00:00,59.8,54.3,30.11,South,183,0.0,0.0,82,0.00,,,0.00,0,Wunderground v.1.15,2013-09-16 00:00:00,
2013-09-15 20:05:00,59.9,54.7,30.11,South,183,0.0,1.0,83,0.00,,,0.00,0,Wunderground v.1.15,2013-09-16 00:05:00,
2013-09-15 20:10:00,60.0,55.2,30.11,South,184,0.0,0.0,84,0.00,,,0.00,0,Wunderground v.1.15,2013-09-16 00:10:00,
2013-09-15 20:20:00,60.4,55.5,30.11,South,178,0.0,0.0,84,0.00,,,0.00,0,Wunderground v.1.15,2013-09-16 00:20:00,
2013-09-15 20:25:00,60.6,55.7,30.11,South,178,0.0,0.0,84,0.00,,,0.00,0,Wunderground v.1.15,2013-09-16 00:25:00,
2013-09-15 20:34:00,61.1,55.9,30.11,South,183,0.0,0.0,83,0.00,,,0.00,0,Wunderground v.1.15,2013-09-16 00:34:00,
2013-09-15 20:40:00,61.3,56.1,30.11,South,183,0.0,0.0,83,0.00,,,0.00,0,Wunderground v.1.15,2013-09-16 00:40:00,
2013-09-15 20:45:00,61.4,55.9,30.11,SSW,207,0.0,0.0,82,0.00,,,0.00,0,Wunderground v.1.15,2013-09-16 00:45:00,
2013-09-15 20:55:00,61.5,56.0,30.11,SSW,208,0.0,0.0,82,0.00,,,0.00,0,Wunderground v.1.15,2013-09-16 00:55:00,
2013-09-15 21:05:00,61.5,56.0,30.11,SW,235,0.0,0.0,82,0.00,,,0.00,0,Wunderground v.1.15,2013-09-16 01:05:00,
2013-09-15 21:15:00,61.3,56.1,30.11,SW,235,0.0,0.0,83,0.00,,,0.00,0,Wunderground v.1.15,2013-09-16 01:15:00,
2013-09-15 21:20:00,61.1,55.9,30.11,SW,235,0.0,0.0,83,0.00,,,0.00,0,Wunderground v.1.15,2013-09-16 01:20:00,
2013-09-15 21:30:00,60.5,55.6,30.11,SW,235,0.0,0.0,84,0.00,,,0.00,0,Wunderground v.1.15,2013-09-16 01:30:00,
2013-09-15 21:40:00,59.8,55.3,30.11,SW,235,0.0,0.0,85,0.00,,,0.00,0,Wunderground v.1.15,2013-09-16 01:40:00,
2013-09-15 21:45:00,59.5,55.3,30.11,SW,235,0.0,0.0,86,0.00,,,0.00,0,Wunderground v.1.15,2013-09-16 01:45:00,
2013-09-15 21:55:00,59.0,54.8,30.11,SW,235,0.0,0.0,86,0.00,,,0.00,0,Wunderground v.1.15,2013-09-16 01:55:00,
2013-09-15 22:00:00,58.8,54.9,30.11,SW,235,0.0,0.0,87,0.00,,,0.00,0,Wunderground v.1.15,2013-09-16 02:00:00,
2013-09-15 22:05:00,58.6,54.7,30.11,SW,235,0.0,0.0,87,0.00,,,0.00,0,Wunderground v.1.15,2013-09-16 02:05:00,
2013-09-15 22:15:00,58.3,54.8,30.11,SW,235,0.0,0.0,88,0.00,,,0.00,0,Wunderground v.1.15,2013-09-16 02:15:00,
2013-09-15 22:20:00,58.1,54.6,30.11,SW,235,0.0,0.0,88,0.00,,,0.00,0,Wunderground v.1.15,2013-09-16 02:20:00,
2013-09-15 22:30:00,58.0,54.8,30.11,SW,235,0.0,0.0,89,0.00,,,0.00,0,Wunderground v.1.15,2013-09-16 02:30:00,
2013-09-15 22:35:00,58.1,54.9,30.11,SW,235,0.0,0.0,89,0.00,,,0.00,0,Wunderground v.1.15,2013-09-16 02:35:00,
2013-09-15 22:45:00,58.2,55.0,30.11,SW,235,0.0,0.0,89,0.00,,,0.00,0,Wunderground v.1.15,2013-09-16 02:45:00,
2013-09-15 22:50:00,58.2,55.3,30.11,SW,235,0.0,0.0,90,0.00,,,0.00,0,Wunderground v.1.15,2013-09-16 02:50:00,
2013-09-15 23:00:00,58.2,55.0,30.11,SW,224,0.0,0.0,89,0.00,,,0.00,0,Wunderground v.1.15,2013-09-16 03:00:00,
2013-09-15 23:05:00,58.3,55.4,30.11,SW,224,0.0,0.0,90,0.00,,,0.00,0,Wunderground v.1.15,2013-09-16 03:05:00,
2013-09-15 23:15:00,58.4,55.5,30.10,SW,224,0.0,0.0,90,0.00,,,0.00,0,Wunderground v.1.15,2013-09-16 03:15:00,
2013-09-15 23:25:00,58.4,55.5,30.10,SW,224,0.0,0.0,90,0.00,,,0.00,0,Wunderground v.1.15,2013-09-16 03:25:00,
2013-09-15 23:30:00,58.3,55.4,30.10,SW,224,0.0,0.0,90,0.00,,,0.00,0,Wunderground v.1.15,2013-09-16 03:30:00,
2013-09-15 23:40:00,58.2,55.3,30.10,SW,224,0.0,0.0,90,0.00,,,0.00,0,Wunderground v.1.15,2013-09-16 03:40:00,
2013-09-15 23:50:00,58.4,55.5,30.09,SW,224,0.0,0.0,90,0.00,,,0.00,0,Wunderground v.1.15,2013-09-16 03:50:00,
2013-09-15 23:55:00,58.5,55.9,30.09,SW,224,0.0,0.0,91,0.00,,,0.00,0,Wunderground v.1.15,2013-09-16 03:55:00,